Time;durP1;ratioP1;P1;durP2;ratioP2;P2;SDS_P1;SDS_P2;PMS_P1;PMS_P2;Temp;Humidity;BMP_temperature;BMP_pressure;BME280_temperature;BME280_humidity;BME280_pressure;Samples;Min_cycle;Max_cycle;Signal;HPM_P1;HPM_P2
2022/02/09 00:04:40;;;;;;;9.57;4.90;;;4.20;64.70;;;;;;5136904;28;20023;-37
2022/02/09 00:07:17;;;;;;;12.27;5.45;;;4.20;64.70;;;;;;5137006;28;20430;-38
2022/02/09 00:09:45;;;;;;;10.93;5.10;;;4.20;65.00;;;;;;5136329;28;20090;-43
2022/02/09 00:12:24;;;;;;;10.18;5.00;;;4.20;65.10;;;;;;5136862;28;20063;-42
2022/02/09 05:57:24;;;;;;;22.17;10.02;;;3.90;74.90;;;;;;5118044;28;20039;-45
2022/02/09 05:59:49;;;;;;;17.98;8.85;;;3.90;75.20;;;;;;5117725;28;20035;-48
2022/02/09 06:02:16;;;;;;;19.80;8.70;;;4.00;75.40;;;;;;5117925;28;20081;-44
2022/02/09 06:04:42;;;;;;;21.88;9.00;;;4.00;75.50;;;;;;5117795;28;20469;-43
2022/02/09 06:07:08;;;;;;;16.67;8.40;;;4.00;75.50;;;;;;5117802;28;20046;-38
2022/02/09 06:09:36;;;;;;;21.55;8.40;;;4.10;75.60;;;;;;5117317;28;20023;-38
2022/02/09 06:12:27;;;;;;;21.65;8.45;;;4.10;75.50;;;;;;5118016;28;20063;-44
2022/02/09 06:15:16;;;;;;;;;;;4.10;75.50;;;;;;5118205;27;20094;-44
2022/02/09 06:20:23;;;;;;;19.75;9.25;;;4.10;75.40;;;;;;5117223;28;20019;-46
2022/02/09 06:22:48;;;;;;;19.95;8.38;;;4.10;75.40;;;;;;5122986;27;20028;-46
2022/02/09 06:25:14;;;;;;;14.70;8.60;;;4.10;75.50;;;;;;5128262;27;20100;-45
2022/02/09 06:27:39;;;;;;;21.42;9.27;;;4.20;75.60;;;;;;5134676;27;20076;-44
2022/02/09 06:30:06;;;;;;;19.33;8.02;;;4.30;75.50;;;;;;5137638;27;20031;-38
2022/02/09 06:32:32;;;;;;;21.55;9.80;;;4.30;75.50;;;;;;5137953;27;20323;-46
2022/02/09 06:34:58;;;;;;;18.13;8.98;;;4.30;75.50;;;;;;5137352;27;20035;-45
2022/02/09 06:37:35;;;;;;;18.08;9.05;;;4.30;75.40;;;;;;5129004;27;20035;-38
2022/02/09 06:40:01;;;;;;;18.33;9.60;;;4.40;75.40;;;;;;5136085;27;20054;-49
2022/02/09 06:42:29;;;;;;;18.33;9.43;;;4.40;75.50;;;;;;5138031;27;20327;-45
2022/02/09 06:44:58;;;;;;;19.63;9.25;;;4.40;75.50;;;;;;5137286;27;20110;-38
2022/02/09 06:47:27;;;;;;;25.40;9.02;;;4.50;75.50;;;;;;5137784;27;20039;-38
2022/02/09 06:50:19;;;;;;;17.35;9.10;;;4.50;75.50;;;;;;5137209;27;20045;-48
2022/02/09 06:52:46;;;;;;;20.20;8.65;;;4.60;75.50;;;;;;5142599;27;20060;-38
2022/02/09 06:55:16;;;;;;;19.70;9.13;;;4.60;75.30;;;;;;5158374;27;20039;-38
2022/02/09 07:00:21;;;;;;;21.55;10.70;;;4.70;75.20;;;;;;5157881;27;20045;-38
2022/02/09 07:02:46;;;;;;;;;;;4.80;75.10;;;;;;5158672;27;20372;-37
2022/02/09 07:05:13;;;;;;;18.83;8.40;;;4.80;74.80;;;;;;5157600;27;19915;-44
2022/02/09 07:07:40;;;;;;;17.45;9.10;;;4.80;74.80;;;;;;5157728;27;20105;-44
2022/02/09 07:10:06;;;;;;;19.25;9.68;;;4.80;74.80;;;;;;5157722;27;20030;-45
2022/02/09 07:12:32;;;;;;;20.55;10.50;;;4.90;75.00;;;;;;5157304;27;20037;-38
2022/02/09 07:14:58;;;;;;;22.00;10.15;;;4.90;74.90;;;;;;5157628;27;20109;-38
2022/02/09 07:17:24;;;;;;;24.67;11.52;;;4.90;74.70;;;;;;5157563;27;20076;-45
2022/02/09 07:19:55;;;;;;;24.88;10.20;;;5.00;74.60;;;;;;5157381;27;20027;-44
2022/02/09 07:22:26;;;;;;;;;;;5.00;74.50;;;;;;5151920;27;20084;-45
2022/02/09 07:25:03;;;;;;;17.88;9.45;;;5.00;74.40;;;;;;5151781;27;19918;-45
2022/02/09 07:27:40;;;;;;;25.38;11.50;;;5.00;74.50;;;;;;5157531;27;20100;-38
2022/02/09 07:30:07;;;;;;;17.98;9.65;;;5.00;74.70;;;;;;5156832;27;20049;-38
2022/02/09 07:32:33;;;;;;;21.45;9.43;;;5.10;74.70;;;;;;5156847;27;20092;-39
2022/02/09 07:34:59;;;;;;;18.42;10.32;;;5.10;74.60;;;;;;5157322;27;20030;-38
2022/02/09 07:37:24;;;;;;;19.20;11.13;;;5.20;74.60;;;;;;5157370;27;20395;-41
2022/02/09 07:39:50;;;;;;;25.42;12.93;;;5.20;74.40;;;;;;5138704;27;20097;-38
2022/02/09 07:42:23;;;;;;;21.15;10.98;;;5.30;74.30;;;;;;5157505;27;20074;-44
2022/02/09 07:45:07;;;;;;;20.27;11.88;;;5.30;74.20;;;;;;5157155;27;20419;-38
2022/02/09 07:47:41;;;;;;;19.95;10.70;;;5.40;74.60;;;;;;5157217;27;20207;-46
2022/02/09 07:52:49;;;;;;;20.60;11.25;;;5.50;73.80;;;;;;5157333;27;20051;-45
2022/02/09 07:55:14;;;;;;;18.52;11.20;;;5.50;73.50;;;;;;5132716;27;20028;-38
2022/02/09 07:57:40;;;;;;;22.65;11.40;;;5.60;73.50;;;;;;5116012;28;20100;-38
2022/02/09 08:00:08;;;;;;;19.75;11.00;;;5.70;73.50;;;;;;5110773;28;20028;-38
2022/02/09 08:02:34;;;;;;;20.30;11.35;;;5.70;73.20;;;;;;5115299;28;20420;-46
2022/02/09 08:05:00;;;;;;;17.90;10.30;;;5.80;73.00;;;;;;5115556;28;20032;-44
2022/02/09 08:07:27;;;;;;;22.60;12.55;;;5.70;72.90;;;;;;5115937;28;20492;-38
2022/02/09 08:09:56;;;;;;;21.95;12.63;;;5.80;72.90;;;;;;5115360;28;20423;-38
2022/02/09 08:12:36;;;;;;;20.02;11.90;;;5.80;73.00;;;;;;5115491;28;20042;-46
2022/02/09 08:20:27;;;;;;;16.30;10.52;;;5.80;73.00;;;;;;5115283;28;20442;-47
2022/02/09 08:26:48;;;;;;;19.20;11.73;;;5.70;73.40;;;;;;5115502;28;20092;-45
2022/02/09 08:29:09;;;;;;;21.05;12.07;;;5.80;73.50;;;;;;5112230;28;20028;-38
2022/02/09 08:34:19;;;;;;;18.17;11.40;;;5.70;73.80;;;;;;5115004;28;20473;-38
2022/02/09 08:36:45;;;;;;;20.10;10.90;;;5.80;73.90;;;;;;5114977;28;20032;-46
2022/02/09 08:39:11;;;;;;;17.98;11.13;;;5.80;74.00;;;;;;5114473;28;20019;-37
2022/02/09 08:41:36;;;;;;;16.50;11.05;;;5.80;74.10;;;;;;5116066;28;20035;-45
2022/02/09 08:44:03;;;;;;;19.02;11.52;;;5.80;74.20;;;;;;5118712;28;20020;-38
2022/02/09 08:46:28;;;;;;;20.20;12.43;;;5.80;74.20;;;;;;5118882;28;20027;-45
2022/02/09 08:48:54;;;;;;;17.95;11.05;;;5.90;74.30;;;;;;5119164;28;20023;-37
2022/02/09 08:51:22;;;;;;;17.27;11.60;;;5.90;74.30;;;;;;5118848;28;20370;-44
2022/02/09 08:53:48;;;;;;;21.65;12.27;;;5.90;74.30;;;;;;5118576;28;20048;-37
2022/02/09 08:56:14;;;;;;;19.40;11.73;;;5.90;74.30;;;;;;5118941;28;20088;-38
2022/02/09 08:58:41;;;;;;;19.05;12.50;;;5.90;74.40;;;;;;5118319;28;20028;-38
2022/02/09 09:01:11;;;;;;;16.08;12.05;;;5.90;74.30;;;;;;5118385;28;20108;-44
2022/02/09 09:03:51;;;;;;;16.65;11.60;;;6.00;74.40;;;;;;5118807;28;20039;-37
2022/02/09 09:06:22;;;;;;;17.43;11.10;;;6.00;74.40;;;;;;5119003;28;20032;-37
2022/02/09 09:25:07;;;;;;;22.80;12.20;;;6.00;75.00;;;;;;5138829;27;20103;-45
2022/02/09 10:34:26;;;;;;;18.70;10.27;;;6.40;74.30;;;;;;5137409;27;20202;-37
2022/02/09 10:37:02;;;;;;;20.17;11.05;;;6.40;74.20;;;;;;5137528;27;20031;-38
2022/02/09 10:39:44;;;;;;;17.95;10.30;;;6.50;74.00;;;;;;5142155;27;20061;-38
2022/02/09 10:44:51;;;;;;;15.27;9.68;;;6.50;73.70;;;;;;5157546;27;20123;-46
2022/02/09 10:47:31;;;;;;;14.95;9.43;;;6.60;73.60;;;;;;5157886;27;20031;-37
2022/02/09 10:50:37;;;;;;;13.77;9.70;;;6.60;73.40;;;;;;5157632;27;20141;-37
2022/02/09 10:53:05;;;;;;;17.85;10.15;;;6.60;73.30;;;;;;5157674;27;20122;-46
2022/02/09 10:55:38;;;;;;;13.82;8.75;;;6.70;73.50;;;;;;5157964;27;20023;-47
2022/02/09 10:58:11;;;;;;;17.50;8.95;;;6.70;73.20;;;;;;5157817;27;20031;-45
2022/02/09 11:00:43;;;;;;;19.52;10.73;;;6.70;73.10;;;;;;5157762;27;20027;-37
2022/02/09 11:03:16;;;;;;;18.45;10.07;;;6.70;73.10;;;;;;5157825;27;20042;-49
2022/02/09 11:05:45;;;;;;;13.13;7.65;;;6.70;73.10;;;;;;5157230;27;20115;-48
2022/02/09 11:08:11;;;;;;;19.33;10.00;;;6.80;73.00;;;;;;5157449;27;20026;-37
2022/02/09 11:10:37;;;;;;;13.43;8.23;;;6.90;72.90;;;;;;5157527;27;20038;-37
2022/02/09 11:13:09;;;;;;;13.23;7.38;;;6.90;72.50;;;;;;5157078;27;20324;-45
2022/02/09 11:15:37;;;;;;;14.05;7.85;;;6.90;72.30;;;;;;5157398;27;20022;-46
2022/02/09 11:18:03;;;;;;;14.23;7.70;;;7.00;72.30;;;;;;5157322;27;20106;-38
2022/02/09 11:20:31;;;;;;;15.52;9.02;;;7.00;72.10;;;;;;5156963;27;20015;-49
2022/02/09 11:22:58;;;;;;;13.23;7.47;;;7.00;72.00;;;;;;5157407;27;20053;-45
2022/02/09 11:25:43;;;;;;;12.02;6.82;;;7.10;71.90;;;;;;5157156;27;20027;-49
2022/02/09 11:28:18;;;;;;;14.07;7.03;;;7.10;71.60;;;;;;5157206;27;20070;-47
2022/02/09 11:31:22;;;;;;;13.75;7.88;;;7.20;71.40;;;;;;5157100;27;20030;-46
2022/02/09 11:34:04;;;;;;;18.77;8.48;;;7.20;71.30;;;;;;5154396;27;20037;-37
2022/02/09 11:36:41;;;;;;;19.80;8.55;;;7.20;70.90;;;;;;5157015;27;20034;-37
2022/02/09 11:39:20;;;;;;;12.85;6.90;;;7.20;70.60;;;;;;5156703;27;20115;-44
2022/02/09 11:42:25;;;;;;;11.30;6.50;;;7.20;70.70;;;;;;5157347;27;20297;-39
2022/02/09 11:48:15;;;;;;;13.95;5.85;;;7.30;70.70;;;;;;5157269;27;20407;-46
2022/02/09 11:50:54;;;;;;;14.70;6.38;;;7.30;70.40;;;;;;5155876;27;20027;-38
2022/02/09 12:11:33;;;;;;;9.57;3.72;;;7.50;68.60;;;;;;5138140;27;20316;-37
2022/02/09 12:14:14;;;;;;;9.27;4.13;;;7.50;68.00;;;;;;5153679;27;20349;-38
2022/02/09 12:19:15;;;;;;;10.57;4.13;;;7.60;67.70;;;;;;5139903;27;20023;-37
2022/02/09 12:24:26;;;;;;;9.10;4.20;;;7.60;67.20;;;;;;5139839;27;20084;-37
2022/02/09 12:26:58;;;;;;;8.20;4.55;;;7.70;66.90;;;;;;5139480;27;20058;-37
2022/02/09 12:29:30;;;;;;;11.32;6.97;;;7.70;66.60;;;;;;5150086;27;20038;-46
2022/02/09 12:31:56;;;;;;;13.93;6.85;;;7.70;66.70;;;;;;5139729;27;20027;-44
2022/02/09 12:34:28;;;;;;;12.35;5.43;;;7.70;66.70;;;;;;5139970;27;20080;-38
2022/02/09 12:36:54;;;;;;;9.18;4.80;;;7.70;66.80;;;;;;5140004;27;20023;-38
2022/02/09 12:39:20;;;;;;;9.32;4.80;;;7.80;66.80;;;;;;5139482;27;20057;-38
2022/02/09 12:41:46;;;;;;;10.88;4.80;;;7.80;66.80;;;;;;5139501;27;20061;-39
2022/02/09 12:44:21;;;;;;;12.88;5.07;;;7.80;66.80;;;;;;5139773;27;20034;-38
2022/02/09 12:46:47;;;;;;;11.43;5.80;;;7.80;66.60;;;;;;5139488;27;20035;-46
2022/02/09 12:49:15;;;;;;;14.30;6.13;;;7.80;66.50;;;;;;5139439;27;20023;-38
2022/02/09 12:51:43;;;;;;;12.57;4.60;;;7.90;66.30;;;;;;5138898;27;20031;-38
2022/02/09 12:54:11;;;;;;;12.18;5.53;;;7.90;65.90;;;;;;5138965;27;20104;-38
2022/02/09 12:56:41;;;;;;;7.82;4.53;;;7.90;65.10;;;;;;5139359;27;20090;-45
2022/02/09 12:59:14;;;;;;;11.00;4.55;;;7.90;64.90;;;;;;5139300;27;20027;-45
2022/02/09 13:01:52;;;;;;;9.05;4.40;;;7.90;64.70;;;;;;5139014;27;20056;-49
2022/02/09 13:04:38;;;;;;;10.23;5.18;;;7.90;64.60;;;;;;5139370;27;20027;-48
2022/02/09 13:07:14;;;;;;;6.63;3.28;;;7.80;64.20;;;;;;5139524;27;20027;-45
2022/02/09 13:09:50;;;;;;;6.55;3.55;;;7.80;63.60;;;;;;5139154;27;20038;-38
2022/02/09 13:12:26;;;;;;;5.78;3.30;;;7.70;63.50;;;;;;5139541;27;20080;-44
2022/02/09 13:14:58;;;;;;;5.72;2.67;;;7.70;63.30;;;;;;5139215;27;20023;-38
2022/02/09 13:18:28;;;;;;;5.15;2.75;;;7.60;63.30;;;;;;5139194;27;20419;-38
2022/02/09 14:02:56;;;;;;;4.78;2.05;;;7.10;61.40;;;;;;5138183;27;20054;-37
2022/02/09 14:16:52;;;;;;;7.43;3.13;;;7.00;61.20;;;;;;5158614;27;20466;-39
2022/02/09 14:33:54;;;;;;;10.20;3.88;;;6.90;61.40;;;;;;5158647;27;20449;-39
2022/02/09 14:56:53;;;;;;;10.63;4.82;;;6.90;62.40;;;;;;5157599;27;20090;-40
2022/02/09 14:59:33;;;;;;;12.55;6.13;;;6.90;62.30;;;;;;5157367;27;20023;-39
2022/02/09 15:02:02;;;;;;;13.82;4.82;;;6.90;62.60;;;;;;5157808;27;20386;-40
2022/02/09 15:07:21;;;;;;;8.82;4.18;;;6.90;62.70;;;;;;5157875;27;20053;-49
2022/02/09 15:09:52;;;;;;;9.48;3.97;;;6.90;62.50;;;;;;5157445;27;20042;-39
2022/02/09 15:22:32;;;;;;;10.20;4.47;;;6.80;63.00;;;;;;5157838;27;20033;-40
2022/02/09 15:24:58;;;;;;;9.02;4.15;;;6.90;63.20;;;;;;5157338;27;20033;-47
2022/02/09 15:27:24;;;;;;;12.60;5.13;;;6.80;63.10;;;;;;5157765;27;20027;-40
2022/02/09 15:29:51;;;;;;;10.02;6.25;;;6.80;63.10;;;;;;5157167;27;20119;-41
2022/02/09 15:32:35;;;;;;;6.82;2.90;;;6.80;63.10;;;;;;5157716;27;20033;-40
2022/02/09 15:37:49;;;;;;;12.80;5.40;;;6.70;63.10;;;;;;5157396;27;20015;-46
2022/02/09 15:40:31;;;;;;;12.07;4.50;;;6.70;63.30;;;;;;5156864;27;20068;-46
2022/02/09 15:57:12;;;;;;;11.13;5.18;;;6.60;63.90;;;;;;5157379;27;20083;-39
2022/02/09 15:59:55;;;;;;;13.20;4.95;;;6.50;64.00;;;;;;5156535;27;20102;-47
2022/02/09 16:23:42;;;;;;;8.25;3.75;;;6.30;65.30;;;;;;5154645;27;20432;-41
2022/02/09 16:44:46;;;;;;;13.15;4.50;;;6.20;66.10;;;;;;5157068;27;20417;-48
2022/02/09 16:47:49;;;;;;;10.15;4.38;;;6.10;66.20;;;;;;5157236;27;20031;-47
2022/02/09 16:50:08;;;;;;;13.23;4.32;;;6.10;66.30;;;;;;5156329;27;20054;-47
2022/02/09 16:52:43;;;;;;;9.45;3.75;;;6.10;66.40;;;;;;5156504;27;20059;-48
2022/02/09 17:08:26;;;;;;;7.40;3.40;;;6.00;66.70;;;;;;5156372;27;20110;-40
2022/02/09 17:19:16;;;;;;;8.93;3.70;;;5.80;67.40;;;;;;5160432;27;20430;-47
2022/02/09 17:21:41;;;;;;;9.40;4.03;;;5.80;67.50;;;;;;5159729;27;20039;-48
2022/02/09 17:24:07;;;;;;;12.10;4.60;;;5.70;67.50;;;;;;5160485;27;20026;-40
2022/02/09 17:26:33;;;;;;;10.10;3.55;;;5.80;67.70;;;;;;5160060;27;20030;-41
2022/02/09 17:29:05;;;;;;;15.15;4.15;;;5.70;67.60;;;;;;5160386;27;20030;-46
2022/02/09 17:58:10;;;;;;;6.88;3.40;;;5.50;68.30;;;;;;5159721;27;20363;-40
2022/02/09 18:00:35;;;;;;;11.13;4.13;;;5.50;68.30;;;;;;5159479;27;20403;-49
2022/02/09 18:03:01;;;;;;;9.23;3.67;;;5.50;68.40;;;;;;5159570;27;20155;-38
2022/02/09 18:05:43;;;;;;;10.65;4.50;;;5.50;68.40;;;;;;5159820;27;20402;-49
2022/02/09 18:08:18;;;;;;;13.13;4.18;;;5.50;68.30;;;;;;5159437;27;20031;-47
2022/02/09 18:10:58;;;;;;;13.13;4.45;;;5.50;68.20;;;;;;5159425;27;20035;-40
2022/02/09 18:29:39;;;;;;;12.30;4.40;;;5.50;68.00;;;;;;5159129;27;20031;-46
2022/02/09 18:37:44;;;;;;;11.57;4.22;;;5.50;67.80;;;;;;5158941;27;20056;-50
2022/02/09 18:43:13;;;;;;;13.05;4.20;;;5.60;67.70;;;;;;5159089;27;20540;-47
2022/02/09 19:04:08;;;;;;;11.07;4.93;;;5.70;67.30;;;;;;5158504;27;20034;-49
2022/02/09 19:17:27;;;;;;;10.18;3.85;;;5.70;67.00;;;;;;5158016;27;20372;-47
2022/02/09 19:46:28;;;;;;;11.25;4.28;;;5.70;67.50;;;;;;5157784;27;20045;-46
2022/02/09 19:51:47;;;;;;;15.95;4.35;;;5.60;67.60;;;;;;5149238;27;20047;-47
2022/02/09 19:54:40;;;;;;;12.80;4.65;;;5.60;67.60;;;;;;5157542;27;20058;-45
2022/02/09 19:57:07;;;;;;;12.45;5.25;;;5.60;67.60;;;;;;5157774;27;20059;-38
2022/02/09 19:59:35;;;;;;;11.98;4.05;;;5.60;67.60;;;;;;5157596;27;20034;-38
2022/02/09 20:02:02;;;;;;;14.15;4.78;;;5.60;67.50;;;;;;5157306;27;20050;-38
2022/02/09 20:04:27;;;;;;;11.00;4.80;;;5.60;67.50;;;;;;5157699;27;20023;-47
2022/02/09 20:06:53;;;;;;;12.43;5.03;;;5.60;67.60;;;;;;5157600;27;20372;-46
2022/02/09 20:09:24;;;;;;;13.48;4.68;;;5.60;67.60;;;;;;5157860;27;20033;-50
2022/02/09 20:11:50;;;;;;;12.70;4.97;;;5.50;67.60;;;;;;5157763;27;20418;-39
2022/02/09 20:14:15;;;;;;;15.02;5.05;;;5.50;67.60;;;;;;5139558;27;20050;-40
2022/02/09 20:16:41;;;;;;;11.20;4.95;;;5.40;67.60;;;;;;5157298;27;20323;-46
2022/02/09 20:19:07;;;;;;;14.13;5.18;;;5.40;67.80;;;;;;5157765;27;20027;-48
2022/02/09 20:21:32;;;;;;;14.57;6.20;;;5.40;67.80;;;;;;5156890;27;20037;-41
2022/02/09 20:24:01;;;;;;;13.23;4.78;;;5.30;67.80;;;;;;5157375;27;20126;-47
2022/02/09 20:26:27;;;;;;;14.70;6.00;;;5.30;67.80;;;;;;5157331;27;20038;-39
2022/02/09 20:29:01;;;;;;;18.88;5.78;;;5.20;67.90;;;;;;5157601;27;20121;-39
2022/02/09 20:31:32;;;;;;;12.77;5.75;;;5.20;68.00;;;;;;5157341;27;20034;-39
2022/02/09 20:34:04;;;;;;;10.57;4.70;;;5.10;68.10;;;;;;5157544;27;20039;-45
2022/02/09 20:36:32;;;;;;;16.85;5.72;;;5.10;68.20;;;;;;5157294;27;20322;-38
2022/02/09 20:39:00;;;;;;;13.70;5.43;;;5.10;68.40;;;;;;5159819;27;20027;-50
2022/02/09 20:41:26;;;;;;;13.45;5.15;;;5.00;68.50;;;;;;5160955;27;20022;-39
2022/02/09 20:44:07;;;;;;;15.38;4.80;;;5.00;68.60;;;;;;5161165;27;20025;-38
2022/02/09 20:46:34;;;;;;;12.98;4.93;;;5.00;68.60;;;;;;5160901;27;20035;-47
2022/02/09 20:49:03;;;;;;;18.27;5.65;;;4.90;68.50;;;;;;5161098;27;20043;-38
2022/02/09 20:51:30;;;;;;;16.13;5.13;;;4.90;68.60;;;;;;5161096;27;20053;-38
2022/02/09 20:53:57;;;;;;;12.63;4.88;;;4.80;68.60;;;;;;5160608;27;20453;-38
2022/02/09 20:56:23;;;;;;;16.67;5.32;;;4.80;68.70;;;;;;5160433;27;20075;-39
2022/02/09 20:58:55;;;;;;;11.90;5.10;;;4.70;68.70;;;;;;5160988;27;20034;-38
2022/02/09 21:01:27;;;;;;;17.42;5.38;;;4.70;68.80;;;;;;5160595;27;20097;-39
2022/02/09 21:04:00;;;;;;;15.60;5.30;;;4.60;68.90;;;;;;5160861;27;20066;-39
2022/02/09 21:06:51;;;;;;;18.80;5.35;;;4.60;69.00;;;;;;5160407;27;20065;-39
2022/02/09 22:00:18;;;;;;;17.02;6.35;;;4.00;70.10;;;;;;5127752;27;20026;-45
2022/02/09 22:21:18;;;;;;;20.13;6.80;;;3.80;70.30;;;;;;5159000;27;20442;-39
2022/02/09 22:32:28;;;;;;;15.13;6.80;;;3.70;70.60;;;;;;5157754;27;20421;-38
2022/02/09 22:46:07;;;;;;;22.50;7.15;;;3.60;71.20;;;;;;5158621;27;20465;-39
2022/02/09 22:56:30;;;;;;;18.25;6.03;;;3.70;71.50;;;;;;5158784;27;20072;-47
2022/02/09 22:58:57;;;;;;;13.93;5.75;;;3.80;71.30;;;;;;5158818;27;20038;-48
2022/02/09 23:01:34;;;;;;;14.63;5.13;;;3.80;71.10;;;;;;5157549;27;20077;-38
